Time;durP1;ratioP1;P1;durP2;ratioP2;P2;SDS_P1;SDS_P2;PMS_P1;PMS_P2;Temp;Humidity;BMP_temperature;BMP_pressure;BME280_temperature;BME280_humidity;BME280_pressure;Samples;Min_cycle;Max_cycle;Signal;HPM_P1;HPM_P2
2022/01/31 00:02:01;;;;;;;16.65;4.53;;;4.50;99.90;;;;;;5046230;28;20051;-66
2022/01/31 00:04:27;;;;;;;18.77;4.65;;;4.50;99.90;;;;;;5043937;28;20582;-67
2022/01/31 00:06:53;;;;;;;16.88;4.32;;;4.50;99.90;;;;;;5038395;28;20124;-66
2022/01/31 00:09:21;;;;;;;17.13;4.80;;;4.50;99.90;;;;;;5041882;28;20107;-66
2022/01/31 00:11:58;;;;;;;13.07;4.78;;;4.50;99.90;;;;;;5048969;28;20049;-67
2022/01/31 00:16:55;;;;;;;17.30;5.47;;;4.50;99.90;;;;;;5043948;28;20059;-66
2022/01/31 00:19:21;;;;;;;14.88;5.65;;;4.50;99.90;;;;;;5039733;28;20033;-67
2022/01/31 00:21:47;;;;;;;16.58;5.57;;;4.50;99.90;;;;;;5041036;28;20051;-66
2022/01/31 00:24:12;;;;;;;16.38;5.72;;;4.60;99.90;;;;;;5046527;28;20440;-66
2022/01/31 00:26:38;;;;;;;21.27;6.15;;;4.60;99.90;;;;;;5042469;28;20056;-66
2022/01/31 00:29:03;;;;;;;16.75;6.43;;;4.60;99.90;;;;;;5041618;28;20093;-67
2022/01/31 00:31:29;;;;;;;15.60;6.25;;;4.70;99.90;;;;;;5048564;28;20090;-67
2022/01/31 00:33:54;;;;;;;14.80;5.68;;;4.70;99.90;;;;;;5036636;28;20056;-66
2022/01/31 00:36:20;;;;;;;21.80;7.03;;;4.70;99.90;;;;;;5040097;28;20475;-67
2022/01/31 00:38:45;;;;;;;18.60;6.78;;;4.70;99.90;;;;;;5027310;28;20037;-67
2022/01/31 00:41:11;;;;;;;21.17;6.88;;;4.70;99.90;;;;;;5048303;28;20033;-66
2022/01/31 00:43:38;;;;;;;22.13;6.63;;;4.70;99.90;;;;;;5047779;28;20036;-66
2022/01/31 00:46:10;;;;;;;21.17;6.75;;;4.80;99.90;;;;;;5048629;28;20358;-66
2022/01/31 00:48:42;;;;;;;18.15;7.25;;;4.80;99.90;;;;;;5025389;28;20143;-66
2022/01/31 00:51:08;;;;;;;24.10;7.30;;;4.80;99.90;;;;;;5049392;28;20530;-66
2022/01/31 00:53:34;;;;;;;22.17;8.02;;;4.80;99.90;;;;;;5047619;28;20041;-65
2022/01/31 00:55:59;;;;;;;18.55;7.38;;;4.80;99.90;;;;;;5049627;28;20068;-65
2022/01/31 00:58:25;;;;;;;16.67;7.53;;;4.80;99.90;;;;;;5039687;28;20128;-66
2022/01/31 01:00:50;;;;;;;22.55;7.95;;;4.80;99.90;;;;;;5042457;28;20444;-66
2022/01/31 01:03:16;;;;;;;16.35;7.43;;;4.80;99.90;;;;;;5047796;28;20056;-66
2022/01/31 01:05:41;;;;;;;20.23;7.72;;;4.80;99.90;;;;;;5045928;28;20433;-65
2022/01/31 01:08:08;;;;;;;15.43;7.43;;;4.80;99.90;;;;;;5049713;28;20047;-65
2022/01/31 01:10:34;;;;;;;17.80;8.00;;;4.80;99.90;;;;;;5049038;28;20380;-66
2022/01/31 01:12:59;;;;;;;22.95;9.07;;;4.80;99.90;;;;;;5041416;28;20045;-65
2022/01/31 01:15:25;;;;;;;23.27;9.18;;;4.80;99.90;;;;;;5039318;28;20400;-65
2022/01/31 01:17:52;;;;;;;19.88;9.45;;;4.80;99.90;;;;;;5037834;28;20135;-65
2022/01/31 01:20:17;;;;;;;21.05;9.13;;;4.70;99.90;;;;;;5040570;28;20119;-64
2022/01/31 01:22:44;;;;;;;22.50;9.63;;;4.70;99.90;;;;;;5040724;28;20504;-64
2022/01/31 01:25:12;;;;;;;20.75;9.77;;;4.70;99.90;;;;;;5047249;28;20458;-66
2022/01/31 01:27:37;;;;;;;19.80;10.30;;;4.50;99.90;;;;;;5040534;28;20041;-63
2022/01/31 01:30:05;;;;;;;24.00;10.70;;;4.50;99.90;;;;;;5038121;28;20385;-64
2022/01/31 01:32:36;;;;;;;20.88;10.05;;;4.50;99.90;;;;;;5039879;28;20057;-64
2022/01/31 01:35:05;;;;;;;24.27;10.40;;;4.50;99.90;;;;;;5051111;28;20408;-66
2022/01/31 01:37:32;;;;;;;22.83;10.40;;;4.50;99.90;;;;;;5039807;28;20090;-64
2022/01/31 01:39:57;;;;;;;18.33;8.77;;;4.50;99.90;;;;;;5044854;28;20068;-65
2022/01/31 01:42:23;;;;;;;19.05;9.77;;;4.50;99.90;;;;;;5046658;28;20036;-65
2022/01/31 01:44:50;;;;;;;20.20;10.45;;;4.50;99.90;;;;;;5046959;28;20033;-66
2022/01/31 01:47:21;;;;;;;22.20;9.63;;;4.50;99.90;;;;;;5043777;28;20060;-66
2022/01/31 01:49:48;;;;;;;19.85;10.40;;;4.50;99.90;;;;;;5044564;28;20071;-66
2022/01/31 01:52:13;;;;;;;21.65;10.18;;;4.40;99.90;;;;;;5046052;28;20106;-66
2022/01/31 01:54:39;;;;;;;24.02;9.95;;;4.50;99.90;;;;;;5037187;28;20037;-64
2022/01/31 01:57:05;;;;;;;18.63;9.32;;;4.50;99.90;;;;;;5044343;28;20060;-66
2022/01/31 01:59:34;;;;;;;17.98;9.43;;;4.40;99.90;;;;;;5036174;28;20124;-64
2022/01/31 02:02:01;;;;;;;16.40;8.52;;;4.40;99.90;;;;;;5039874;28;20120;-65
2022/01/31 02:04:28;;;;;;;18.42;8.65;;;4.40;99.90;;;;;;5041447;28;20068;-64
2022/01/31 02:06:53;;;;;;;19.58;8.45;;;4.40;99.90;;;;;;5046124;28;20111;-67
2022/01/31 02:09:25;;;;;;;17.30;7.97;;;4.40;99.90;;;;;;5042670;28;20129;-64
2022/01/31 02:11:54;;;;;;;18.73;8.85;;;4.50;99.90;;;;;;5045637;28;20080;-64
2022/01/31 02:14:20;;;;;;;18.67;8.32;;;4.40;99.90;;;;;;5043077;28;20489;-65
2022/01/31 02:16:49;;;;;;;14.43;8.07;;;4.40;99.90;;;;;;5050021;28;20041;-64
2022/01/31 02:19:16;;;;;;;18.27;8.10;;;4.40;99.90;;;;;;5038065;28;20049;-65
2022/01/31 02:21:48;;;;;;;20.98;8.00;;;4.40;99.90;;;;;;5040055;28;20523;-65
2022/01/31 02:24:14;;;;;;;18.00;7.53;;;4.40;99.90;;;;;;5042955;28;20338;-64
2022/01/31 02:26:40;;;;;;;18.27;7.70;;;4.40;99.90;;;;;;5050317;28;20037;-66
2022/01/31 02:29:08;;;;;;;14.98;7.53;;;4.40;99.90;;;;;;5041273;28;20037;-66
2022/01/31 02:31:34;;;;;;;17.73;7.63;;;4.40;99.90;;;;;;5035643;28;20057;-66
2022/01/31 02:34:00;;;;;;;14.05;7.15;;;4.40;99.90;;;;;;5039468;28;20052;-66
2022/01/31 02:36:26;;;;;;;18.23;7.28;;;4.40;99.90;;;;;;5041835;28;20049;-66
2022/01/31 02:38:51;;;;;;;11.23;5.72;;;4.40;99.90;;;;;;5045140;28;20065;-65
2022/01/31 02:41:17;;;;;;;12.80;6.40;;;4.40;99.90;;;;;;5033729;28;20056;-66
2022/01/31 02:43:48;;;;;;;14.32;6.47;;;4.50;99.90;;;;;;5043062;28;20042;-66
2022/01/31 02:46:14;;;;;;;13.15;6.25;;;4.50;99.90;;;;;;5043999;28;20073;-66
2022/01/31 02:48:40;;;;;;;11.43;5.70;;;4.40;99.90;;;;;;5046452;28;20084;-66
2022/01/31 02:51:09;;;;;;;12.13;6.57;;;4.40;99.90;;;;;;5037968;28;20049;-66
2022/01/31 02:53:40;;;;;;;11.05;5.75;;;4.50;99.90;;;;;;5054310;28;20160;-66
2022/01/31 02:56:07;;;;;;;12.75;6.80;;;4.50;99.90;;;;;;5050271;28;20167;-67
2022/01/31 02:58:33;;;;;;;14.75;6.60;;;4.50;99.90;;;;;;5045436;28;20491;-65
2022/01/31 03:00:58;;;;;;;12.93;6.13;;;4.50;99.90;;;;;;5042990;28;20445;-65
2022/01/31 03:03:25;;;;;;;14.85;5.97;;;4.50;99.90;;;;;;5042319;28;20053;-65
2022/01/31 03:05:51;;;;;;;13.35;6.70;;;4.60;99.90;;;;;;5048269;28;20540;-66
2022/01/31 03:08:17;;;;;;;12.57;6.57;;;4.60;99.90;;;;;;5049693;28;20048;-66
2022/01/31 03:10:43;;;;;;;11.57;6.20;;;4.60;99.90;;;;;;5038577;28;20041;-65
2022/01/31 03:13:08;;;;;;;14.98;7.05;;;4.70;99.90;;;;;;5047035;28;20341;-65
2022/01/31 03:15:34;;;;;;;13.43;6.95;;;4.70;99.90;;;;;;5048281;28;20263;-66
2022/01/31 03:18:00;;;;;;;13.88;7.47;;;4.70;99.90;;;;;;5048428;28;20042;-67
2022/01/31 03:20:26;;;;;;;14.93;6.97;;;4.80;99.90;;;;;;5041151;28;20480;-66
2022/01/31 03:22:52;;;;;;;14.73;7.10;;;4.80;99.90;;;;;;5047771;28;20460;-66
2022/01/31 03:25:19;;;;;;;18.77;7.50;;;4.90;99.90;;;;;;5046002;28;20102;-65
2022/01/31 03:27:45;;;;;;;20.95;7.55;;;5.00;99.90;;;;;;5035029;28;20037;-65
2022/01/31 03:30:20;;;;;;;20.10;7.32;;;5.00;99.90;;;;;;5038570;28;20029;-64
2022/01/31 03:32:46;;;;;;;19.63;5.63;;;5.10;99.90;;;;;;5040754;28;20056;-65
2022/01/31 03:35:12;;;;;;;13.45;4.95;;;5.20;99.90;;;;;;5044360;28;20463;-65
2022/01/31 03:37:38;;;;;;;14.57;4.00;;;5.20;99.90;;;;;;5045042;28;20120;-65
2022/01/31 03:40:05;;;;;;;20.10;3.75;;;5.30;99.90;;;;;;5039325;28;20137;-65
2022/01/31 03:42:31;;;;;;;16.83;3.40;;;5.40;99.90;;;;;;5016463;28;20144;-65
2022/01/31 03:44:57;;;;;;;15.02;3.45;;;5.40;99.90;;;;;;5049611;28;20103;-65
2022/01/31 03:47:23;;;;;;;15.43;3.42;;;5.40;99.90;;;;;;5048233;28;20040;-67
2022/01/31 03:49:49;;;;;;;15.63;3.83;;;5.50;99.90;;;;;;5045475;28;20533;-65
2022/01/31 03:52:15;;;;;;;14.65;3.10;;;5.70;99.90;;;;;;5038460;28;20140;-66
2022/01/31 03:54:42;;;;;;;20.23;3.35;;;5.70;99.90;;;;;;5048770;28;20037;-65
2022/01/31 03:57:07;;;;;;;16.15;3.35;;;5.80;99.90;;;;;;5046092;28;20122;-65
2022/01/31 03:59:33;;;;;;;25.13;4.38;;;5.90;99.90;;;;;;5046049;28;20060;-66
2022/01/31 04:01:59;;;;;;;20.85;3.67;;;5.90;99.90;;;;;;5042430;28;20041;-66
2022/01/31 04:04:25;;;;;;;17.42;3.47;;;5.90;99.90;;;;;;5041745;28;20506;-65
2022/01/31 04:06:51;;;;;;;20.15;3.90;;;5.90;99.90;;;;;;5047423;28;20037;-65
2022/01/31 04:09:16;;;;;;;15.18;3.30;;;6.00;99.90;;;;;;5048411;28;20048;-65
2022/01/31 04:11:43;;;;;;;16.55;3.13;;;6.00;99.90;;;;;;5048585;28;20950;-65
2022/01/31 04:14:09;;;;;;;17.80;3.47;;;6.00;99.90;;;;;;5040946;28;20052;-66
2022/01/31 04:16:35;;;;;;;20.67;3.33;;;6.00;99.90;;;;;;5048089;28;20102;-64
2022/01/31 04:19:01;;;;;;;19.92;3.70;;;6.00;99.90;;;;;;5045711;28;20037;-67
2022/01/31 04:21:26;;;;;;;20.95;3.17;;;6.00;99.90;;;;;;5041811;28;20103;-67
2022/01/31 04:23:53;;;;;;;17.75;2.90;;;6.00;99.90;;;;;;5048568;28;20040;-65
2022/01/31 04:26:19;;;;;;;15.43;2.90;;;6.00;99.90;;;;;;5046414;28;20191;-65
2022/01/31 04:28:48;;;;;;;20.98;3.38;;;6.00;99.90;;;;;;5047256;28;20048;-65
2022/01/31 04:33:48;;;;;;;18.48;3.30;;;5.90;99.90;;;;;;5038564;28;20059;-66
2022/01/31 04:36:15;;;;;;;11.75;2.38;;;5.90;99.90;;;;;;5053248;28;20060;-66
2022/01/31 04:38:41;;;;;;;14.77;2.28;;;5.90;99.90;;;;;;5046117;28;20051;-65
2022/01/31 04:41:07;;;;;;;13.82;2.53;;;5.80;99.90;;;;;;5038210;28;20125;-67
2022/01/31 04:43:33;;;;;;;13.95;2.65;;;5.80;99.90;;;;;;5031082;28;20042;-65
2022/01/31 04:46:01;;;;;;;21.20;2.55;;;5.70;99.90;;;;;;5042332;28;20144;-65
2022/01/31 04:48:27;;;;;;;15.68;2.25;;;5.60;99.90;;;;;;5045803;28;20041;-66
2022/01/31 04:50:53;;;;;;;20.05;2.58;;;5.60;99.90;;;;;;5043653;28;20047;-66
2022/01/31 04:53:18;;;;;;;18.77;3.03;;;5.60;99.90;;;;;;5043540;28;20048;-65
2022/01/31 04:55:44;;;;;;;15.75;2.30;;;5.60;99.90;;;;;;5043099;28;20048;-66
2022/01/31 04:58:10;;;;;;;13.40;2.60;;;5.60;99.90;;;;;;5049050;28;20064;-65
2022/01/31 05:00:37;;;;;;;16.75;2.92;;;5.60;99.90;;;;;;5041134;28;20041;-65
2022/01/31 05:03:08;;;;;;;18.25;2.42;;;5.60;99.90;;;;;;5035602;28;20833;-66
2022/01/31 05:05:34;;;;;;;19.33;3.08;;;5.50;99.90;;;;;;5044055;28;20148;-65
2022/01/31 05:07:59;;;;;;;21.08;3.47;;;5.50;99.90;;;;;;5045463;28;20456;-65
2022/01/31 05:10:25;;;;;;;23.85;3.50;;;5.60;99.90;;;;;;5041411;28;20044;-65
2022/01/31 05:12:51;;;;;;;17.50;3.08;;;5.50;99.90;;;;;;5044654;28;20400;-65
2022/01/31 05:15:17;;;;;;;14.55;3.22;;;5.60;99.90;;;;;;5038987;28;20440;-65
2022/01/31 05:17:42;;;;;;;15.52;2.17;;;5.60;99.90;;;;;;5046082;28;20049;-65
2022/01/31 05:20:08;;;;;;;14.75;1.80;;;5.60;99.90;;;;;;5047072;28;20084;-66
2022/01/31 05:22:33;;;;;;;10.45;1.83;;;5.60;99.90;;;;;;5044781;28;20044;-65
2022/01/31 05:24:59;;;;;;;8.63;1.60;;;5.50;99.90;;;;;;5042714;28;20041;-65
2022/01/31 05:27:24;;;;;;;9.82;1.70;;;5.50;99.90;;;;;;5040771;28;20159;-64
2022/01/31 05:29:50;;;;;;;5.65;1.17;;;5.40;99.90;;;;;;5044986;28;20055;-65
2022/01/31 05:32:15;;;;;;;7.22;1.60;;;5.20;99.90;;;;;;5046060;28;20112;-65
2022/01/31 05:34:41;;;;;;;8.98;1.30;;;5.10;99.90;;;;;;5044787;28;20692;-66
2022/01/31 05:37:07;;;;;;;12.00;1.90;;;5.10;99.90;;;;;;5048588;28;20048;-66
2022/01/31 05:39:32;;;;;;;7.82;1.45;;;5.10;99.90;;;;;;5039649;28;20051;-64
2022/01/31 05:41:59;;;;;;;8.95;1.50;;;5.00;99.90;;;;;;5046549;28;20046;-65
2022/01/31 05:44:25;;;;;;;11.82;1.92;;;5.00;99.90;;;;;;5047878;28;20159;-66
2022/01/31 05:46:51;;;;;;;9.57;1.83;;;5.00;99.90;;;;;;5050705;28;20325;-66
2022/01/31 05:49:17;;;;;;;11.15;2.00;;;5.00;99.90;;;;;;5044160;28;20045;-66
2022/01/31 05:51:49;;;;;;;12.40;1.70;;;5.00;99.90;;;;;;5039520;28;20037;-66
2022/01/31 05:54:14;;;;;;;11.30;1.80;;;5.10;99.90;;;;;;5047405;28;20394;-66
2022/01/31 05:56:40;;;;;;;10.88;2.20;;;5.10;99.90;;;;;;5039298;28;20048;-68
2022/01/31 05:59:05;;;;;;;13.25;2.08;;;5.10;99.90;;;;;;5036649;28;20037;-67
2022/01/31 06:01:31;;;;;;;14.52;2.20;;;5.10;99.90;;;;;;5046143;28;20113;-67
2022/01/31 06:03:56;;;;;;;17.45;3.05;;;5.10;99.90;;;;;;5051768;28;20210;-65
2022/01/31 06:06:22;;;;;;;12.55;2.00;;;5.20;99.90;;;;;;5048317;28;20114;-66
2022/01/31 06:08:47;;;;;;;17.40;2.30;;;5.20;99.90;;;;;;5025593;28;20120;-66
2022/01/31 06:11:13;;;;;;;14.00;3.00;;;5.20;99.90;;;;;;5026498;28;20055;-66
2022/01/31 06:13:39;;;;;;;13.60;2.20;;;5.30;99.90;;;;;;5044179;28;20033;-66
2022/01/31 06:16:04;;;;;;;18.92;3.67;;;5.30;99.90;;;;;;5047935;28;20041;-64
2022/01/31 06:18:30;;;;;;;13.68;3.03;;;5.30;99.90;;;;;;5041563;28;20060;-66
2022/01/31 06:20:55;;;;;;;16.98;2.72;;;5.30;99.90;;;;;;5044016;28;20396;-65
2022/01/31 06:23:21;;;;;;;15.18;2.58;;;5.30;99.90;;;;;;5043393;28;20192;-66
2022/01/31 06:25:48;;;;;;;19.83;2.60;;;5.40;99.90;;;;;;5048609;28;20465;-64
2022/01/31 06:28:14;;;;;;;13.93;2.55;;;5.40;99.90;;;;;;5037054;28;20056;-65
2022/01/31 06:30:39;;;;;;;17.65;2.72;;;5.40;99.90;;;;;;5041132;28;20048;-66
2022/01/31 06:33:05;;;;;;;13.13;3.20;;;5.50;99.90;;;;;;5042331;28;20048;-67
2022/01/31 06:35:30;;;;;;;11.77;1.90;;;5.50;99.90;;;;;;5042781;28;20029;-65
2022/01/31 06:37:56;;;;;;;13.88;2.28;;;5.50;99.90;;;;;;5047331;28;20048;-65
2022/01/31 06:40:21;;;;;;;9.65;1.67;;;5.50;99.90;;;;;;5047126;28;20086;-64
2022/01/31 06:42:47;;;;;;;14.45;1.75;;;5.50;99.90;;;;;;5048701;28;20050;-65
2022/01/31 06:45:14;;;;;;;7.38;1.73;;;5.40;99.90;;;;;;5048910;28;20041;-65
2022/01/31 06:47:40;;;;;;;8.45;1.90;;;5.40;99.90;;;;;;5043781;28;20075;-65
2022/01/31 06:50:07;;;;;;;6.85;1.63;;;5.40;99.90;;;;;;5039092;28;20045;-65
2022/01/31 06:52:35;;;;;;;9.02;2.08;;;5.40;99.90;;;;;;5049122;28;20442;-66
2022/01/31 06:55:04;;;;;;;8.13;1.60;;;5.30;99.90;;;;;;5052092;28;20112;-65
2022/01/31 06:57:34;;;;;;;9.77;1.83;;;5.30;99.90;;;;;;5044380;28;20388;-65
2022/01/31 07:00:03;;;;;;;10.80;1.70;;;5.30;99.90;;;;;;5041323;28;20052;-65
2022/01/31 07:02:30;;;;;;;12.30;2.38;;;5.30;99.90;;;;;;5048350;28;20126;-66
2022/01/31 07:04:55;;;;;;;14.82;2.22;;;5.30;99.90;;;;;;5046648;28;20096;-65
2022/01/31 07:07:21;;;;;;;10.77;2.00;;;5.30;99.90;;;;;;5050789;28;20123;-65
2022/01/31 07:09:46;;;;;;;10.02;2.03;;;5.30;99.90;;;;;;5045729;28;20037;-66
2022/01/31 07:12:13;;;;;;;13.27;1.60;;;5.30;99.90;;;;;;5044195;28;20208;-65
2022/01/31 07:14:38;;;;;;;13.15;2.00;;;5.40;99.90;;;;;;5040390;28;20049;-65
2022/01/31 07:17:06;;;;;;;9.88;1.80;;;5.30;99.90;;;;;;5031142;28;20052;-65
2022/01/31 07:19:35;;;;;;;13.52;2.08;;;5.40;99.90;;;;;;5047972;28;20149;-65
2022/01/31 07:22:04;;;;;;;16.27;2.58;;;5.30;99.90;;;;;;5048598;28;20064;-67
2022/01/31 07:27:01;;;;;;;19.35;2.53;;;5.30;99.90;;;;;;5047412;28;20045;-68
2022/01/31 07:29:29;;;;;;;17.35;2.78;;;5.40;99.90;;;;;;5044375;28;20067;-65
2022/01/31 07:31:55;;;;;;;14.07;1.92;;;5.40;99.90;;;;;;5047226;28;20779;-66
2022/01/31 07:34:21;;;;;;;18.38;2.08;;;5.40;99.90;;;;;;5045548;28;20056;-66
2022/01/31 07:36:47;;;;;;;9.25;2.20;;;5.40;99.90;;;;;;5048461;28;20053;-65
2022/01/31 07:39:13;;;;;;;18.08;2.58;;;5.40;99.90;;;;;;5046928;28;20183;-64
2022/01/31 07:41:39;;;;;;;15.30;2.63;;;5.40;99.90;;;;;;5047188;28;20172;-64
2022/01/31 07:44:05;;;;;;;18.88;2.92;;;5.50;99.90;;;;;;5049572;28;20479;-68
2022/01/31 07:46:31;;;;;;;14.13;2.15;;;5.50;99.90;;;;;;5044997;28;20182;-66
2022/01/31 07:48:56;;;;;;;17.42;2.92;;;5.50;99.90;;;;;;5045689;28;20037;-65
2022/01/31 07:51:22;;;;;;;18.85;3.10;;;5.60;99.90;;;;;;5045518;28;20091;-65
2022/01/31 07:53:48;;;;;;;16.92;2.63;;;5.60;99.90;;;;;;5046398;28;20045;-66
2022/01/31 07:56:15;;;;;;;14.02;2.17;;;5.60;99.90;;;;;;5046660;28;20129;-66
2022/01/31 07:58:41;;;;;;;14.77;2.42;;;5.60;99.90;;;;;;5043103;28;20064;-66
2022/01/31 08:01:07;;;;;;;12.52;2.00;;;5.60;99.90;;;;;;5044833;28;20421;-66
2022/01/31 08:03:34;;;;;;;12.23;2.28;;;5.70;99.90;;;;;;5044775;28;20049;-66
2022/01/31 08:06:00;;;;;;;12.95;2.05;;;5.70;99.90;;;;;;5048012;28;20068;-64
2022/01/31 08:08:29;;;;;;;14.05;2.10;;;5.60;99.90;;;;;;5048240;28;20037;-65
2022/01/31 08:10:55;;;;;;;14.48;2.50;;;5.70;99.90;;;;;;5046801;28;21149;-64
2022/01/31 08:13:21;;;;;;;18.70;2.50;;;5.70;99.90;;;;;;5047394;28;20044;-65
2022/01/31 08:15:49;;;;;;;14.93;2.63;;;5.70;99.90;;;;;;5048925;28;20048;-66
2022/01/31 08:18:15;;;;;;;15.30;2.83;;;5.80;99.90;;;;;;5057042;28;20476;-66
2022/01/31 08:20:41;;;;;;;16.75;3.35;;;5.80;99.90;;;;;;5043232;28;20350;-66
2022/01/31 08:23:08;;;;;;;17.13;2.88;;;5.80;99.90;;;;;;5046870;28;20045;-65
2022/01/31 08:25:36;;;;;;;25.98;3.70;;;5.90;99.90;;;;;;5053073;28;20086;-69
2022/01/31 08:28:09;;;;;;;20.33;3.20;;;5.90;99.90;;;;;;5049345;28;20040;-64
2022/01/31 08:30:43;;;;;;;21.67;3.90;;;6.00;99.90;;;;;;5050114;28;20048;-64
2022/01/31 08:33:25;;;;;;;24.47;3.87;;;6.00;99.90;;;;;;5047804;28;20052;-66
2022/01/31 08:35:51;;;;;;;30.95;5.13;;;6.10;99.90;;;;;;5050640;28;20060;-65
2022/01/31 08:38:18;;;;;;;25.50;3.88;;;6.10;99.90;;;;;;5055483;28;20570;-63
2022/01/31 08:40:45;;;;;;;23.17;4.03;;;6.20;99.90;;;;;;5050318;28;20124;-64
2022/01/31 08:43:12;;;;;;;15.90;2.08;;;6.20;99.90;;;;;;5051758;28;20056;-66
2022/01/31 08:45:38;;;;;;;14.05;2.20;;;6.30;99.90;;;;;;5047158;28;20048;-65
2022/01/31 08:48:04;;;;;;;14.57;2.35;;;6.30;99.90;;;;;;5048411;28;20439;-65
2022/01/31 08:50:30;;;;;;;11.07;1.98;;;6.30;99.90;;;;;;5041899;28;20037;-65
2022/01/31 08:52:56;;;;;;;13.18;2.22;;;6.30;99.90;;;;;;5047528;28;20135;-65
2022/01/31 08:55:23;;;;;;;13.70;2.33;;;6.30;99.90;;;;;;5047171;28;20132;-66
2022/01/31 08:57:53;;;;;;;16.63;2.72;;;6.30;99.90;;;;;;5045787;28;20083;-66
2022/01/31 09:00:19;;;;;;;14.15;2.00;;;6.30;99.90;;;;;;5046264;28;20045;-65
2022/01/31 09:02:59;;;;;;;14.80;2.08;;;6.30;99.90;;;;;;5045800;28;20416;-66
2022/01/31 09:05:25;;;;;;;11.43;1.42;;;6.30;99.90;;;;;;5040173;28;20045;-66
2022/01/31 09:07:50;;;;;;;10.68;2.20;;;6.30;99.90;;;;;;5048036;28;20055;-66
2022/01/31 09:10:18;;;;;;;13.18;2.15;;;6.30;99.90;;;;;;5048626;28;20045;-66
2022/01/31 09:12:43;;;;;;;8.27;1.58;;;6.30;99.90;;;;;;5047004;28;20048;-66
2022/01/31 09:15:12;;;;;;;11.10;1.88;;;6.30;99.90;;;;;;5034683;28;20048;-66
2022/01/31 09:17:38;;;;;;;11.63;1.60;;;6.30;99.90;;;;;;5045564;28;20056;-64
2022/01/31 09:20:05;;;;;;;9.43;1.75;;;6.30;99.90;;;;;;5042639;28;20044;-66
2022/01/31 09:22:31;;;;;;;13.98;2.70;;;6.40;99.90;;;;;;5049954;28;20178;-66
2022/01/31 09:24:56;;;;;;;11.27;2.28;;;6.40;99.90;;;;;;5049987;28;20195;-65
2022/01/31 09:27:22;;;;;;;10.00;1.67;;;6.50;99.90;;;;;;5051088;28;20174;-66
2022/01/31 09:29:47;;;;;;;15.52;2.13;;;6.50;99.90;;;;;;5050222;28;20431;-66
2022/01/31 09:32:15;;;;;;;11.75;1.42;;;6.60;99.90;;;;;;5050605;28;20040;-66
2022/01/31 09:34:40;;;;;;;9.32;1.50;;;6.60;99.90;;;;;;5052125;28;20064;-65
2022/01/31 09:37:07;;;;;;;10.52;1.65;;;6.60;99.90;;;;;;5052101;28;20037;-65
2022/01/31 09:39:34;;;;;;;12.68;1.88;;;6.60;99.90;;;;;;5047615;28;20049;-67
2022/01/31 09:42:00;;;;;;;11.15;1.90;;;6.60;99.90;;;;;;5035264;28;20060;-66
2022/01/31 09:44:42;;;;;;;13.60;2.38;;;6.60;99.90;;;;;;5050364;28;20317;-65
2022/01/31 09:47:20;;;;;;;13.30;1.77;;;6.60;99.90;;;;;;5051513;28;20124;-65
2022/01/31 09:49:46;;;;;;;8.77;2.10;;;6.60;99.90;;;;;;5055075;28;20041;-68
2022/01/31 09:52:12;;;;;;;11.30;1.63;;;6.60;99.90;;;;;;5048686;28;20044;-66
2022/01/31 09:54:38;;;;;;;13.15;2.15;;;6.60;99.90;;;;;;5046480;28;20387;-66
2022/01/31 09:57:04;;;;;;;15.65;2.33;;;6.60;99.90;;;;;;5046992;28;20061;-69
2022/01/31 09:59:30;;;;;;;12.55;2.05;;;6.60;99.90;;;;;;5044812;28;20044;-67
2022/01/31 10:01:57;;;;;;;7.68;1.50;;;6.70;99.90;;;;;;5047751;28;20057;-67
2022/01/31 10:04:30;;;;;;;10.60;1.50;;;6.70;99.90;;;;;;5053301;28;20152;-68
2022/01/31 10:06:57;;;;;;;13.10;1.73;;;6.80;99.90;;;;;;5034676;28;20059;-67
2022/01/31 10:09:30;;;;;;;11.90;1.90;;;6.90;99.90;;;;;;5050748;28;20060;-67
2022/01/31 10:12:08;;;;;;;7.95;1.30;;;6.90;99.90;;;;;;5049247;28;20501;-67
2022/01/31 10:17:30;;;;;;;10.48;1.70;;;7.00;99.90;;;;;;5048050;28;20057;-66
2022/01/31 10:20:08;;;;;;;13.05;1.63;;;7.00;99.90;;;;;;5038567;28;20503;-67
2022/01/31 10:22:38;;;;;;;12.25;1.80;;;7.00;99.90;;;;;;5052432;28;20103;-67
2022/01/31 10:25:08;;;;;;;13.02;2.38;;;7.10;99.90;;;;;;5048970;28;20048;-67
2022/01/31 10:27:36;;;;;;;15.77;2.30;;;7.20;99.90;;;;;;5049159;28;20139;-67
2022/01/31 10:30:24;;;;;;;10.32;2.55;;;7.30;99.90;;;;;;5038880;28;20489;-66
2022/01/31 10:32:51;;;;;;;17.75;2.00;;;7.30;99.90;;;;;;5052393;28;20094;-67
2022/01/31 10:35:20;;;;;;;13.73;3.08;;;7.30;99.90;;;;;;5047159;28;20055;-67
2022/01/31 10:37:47;;;;;;;11.48;2.05;;;7.20;99.90;;;;;;5049551;28;20128;-66
2022/01/31 10:54:07;;;;;;;9.10;1.83;;;7.20;99.90;;;;;;5050248;28;20059;-66
2022/01/31 10:56:47;;;;;;;10.02;1.90;;;7.10;99.90;;;;;;5048456;28;20496;-66
2022/01/31 10:59:18;;;;;;;7.03;1.23;;;7.10;99.90;;;;;;5050058;28;20531;-66
2022/01/31 11:01:51;;;;;;;8.30;1.23;;;7.00;99.90;;;;;;5047761;28;20858;-66
2022/01/31 11:04:17;;;;;;;9.07;1.02;;;7.10;99.90;;;;;;5047633;28;20041;-66
2022/01/31 11:06:44;;;;;;;6.03;1.13;;;7.10;99.90;;;;;;5050095;28;20057;-66
2022/01/31 11:09:13;;;;;;;8.27;1.27;;;7.00;99.90;;;;;;5055735;28;20051;-66
2022/01/31 11:11:44;;;;;;;5.68;0.95;;;7.10;99.90;;;;;;5048689;28;20068;-66
2022/01/31 11:14:11;;;;;;;5.55;1.05;;;7.00;99.90;;;;;;5030285;28;20056;-66
2022/01/31 11:16:40;;;;;;;6.72;0.90;;;6.90;99.90;;;;;;5047464;28;20049;-67
2022/01/31 11:19:08;;;;;;;4.00;0.80;;;6.90;99.90;;;;;;5051418;28;20060;-67
2022/01/31 11:21:39;;;;;;;5.28;1.23;;;6.90;99.90;;;;;;5048206;28;20074;-66
2022/01/31 11:24:23;;;;;;;5.88;1.00;;;6.90;99.90;;;;;;5049191;28;20479;-67
2022/01/31 11:26:51;;;;;;;5.82;1.17;;;6.90;99.90;;;;;;5050050;28;20330;-66
2022/01/31 11:29:18;;;;;;;7.28;1.30;;;6.90;99.90;;;;;;5055851;28;20105;-67
2022/01/31 11:31:45;;;;;;;10.60;1.98;;;6.80;99.90;;;;;;5052324;28;20085;-67
2022/01/31 11:34:11;;;;;;;6.25;1.02;;;6.80;99.90;;;;;;5047548;28;20069;-66
2022/01/31 11:36:38;;;;;;;5.07;0.70;;;6.70;99.90;;;;;;5048681;28;20101;-68
2022/01/31 11:39:08;;;;;;;4.20;0.88;;;6.70;99.90;;;;;;5046975;28;20033;-68
2022/01/31 11:41:35;;;;;;;3.88;0.85;;;6.70;99.90;;;;;;5048463;28;20120;-66
2022/01/31 11:44:29;;;;;;;3.38;0.82;;;6.70;99.90;;;;;;5050402;28;20166;-68
2022/01/31 11:46:56;;;;;;;6.07;0.70;;;6.70;99.90;;;;;;5049644;28;20467;-67
2022/01/31 11:49:22;;;;;;;5.68;0.80;;;6.70;99.90;;;;;;5048246;28;20041;-69
2022/01/31 11:51:50;;;;;;;4.78;0.80;;;6.70;99.90;;;;;;5049847;28;20041;-66
2022/01/31 11:54:22;;;;;;;3.45;0.70;;;6.70;99.90;;;;;;5043379;28;20238;-66
2022/01/31 11:56:52;;;;;;;5.75;1.00;;;6.70;99.90;;;;;;5048198;28;20052;-65
2022/01/31 11:59:21;;;;;;;5.22;0.95;;;6.70;99.90;;;;;;5046450;28;20049;-67
2022/01/31 12:01:50;;;;;;;4.10;0.90;;;6.80;99.90;;;;;;5041790;28;20499;-66
2022/01/31 12:04:16;;;;;;;9.32;1.35;;;6.90;99.90;;;;;;5046885;28;20106;-66
2022/01/31 12:06:42;;;;;;;12.55;2.05;;;6.90;99.90;;;;;;5049367;28;20037;-68
2022/01/31 12:09:13;;;;;;;12.43;1.90;;;6.90;99.90;;;;;;5049037;28;20040;-65
2022/01/31 12:12:05;;;;;;;13.40;2.30;;;7.00;99.90;;;;;;5046921;28;21543;-68
2022/01/31 12:14:51;;;;;;;16.17;2.78;;;7.00;99.90;;;;;;5048327;28;20037;-68
2022/01/31 12:21:59;;;;;;;15.60;2.40;;;7.10;99.90;;;;;;5040528;28;20479;-65
2022/01/31 12:23:35;;;;;;;17.33;3.10;;;7.10;99.90;;;;;;5050670;28;20048;-65
2022/01/31 12:26:03;;;;;;;24.75;3.47;;;7.10;99.90;;;;;;5051000;28;20041;-66
2022/01/31 12:28:40;;;;;;;21.60;3.20;;;7.10;99.90;;;;;;5053019;28;20512;-66
2022/01/31 12:31:28;;;;;;;24.83;3.58;;;7.10;99.90;;;;;;5052846;28;20403;-66
2022/01/31 12:33:53;;;;;;;24.73;3.97;;;7.20;99.90;;;;;;5053262;28;20389;-66
2022/01/31 12:36:45;;;;;;;21.63;3.55;;;7.30;99.90;;;;;;5052101;28;20121;-66
2022/01/31 12:39:37;;;;;;;16.88;3.30;;;7.30;99.90;;;;;;5034426;28;20045;-65
2022/01/31 12:42:46;;;;;;;21.55;3.38;;;7.40;99.90;;;;;;5051002;28;20599;-67
2022/01/31 12:45:14;;;;;;;20.67;3.17;;;7.40;99.90;;;;;;5041008;28;20067;-67
2022/01/31 12:48:08;;;;;;;20.90;3.33;;;7.50;99.90;;;;;;5052204;28;20115;-64
2022/01/31 12:50:38;;;;;;;16.33;3.17;;;7.60;99.90;;;;;;5043423;28;20132;-65
2022/01/31 12:53:06;;;;;;;17.75;3.30;;;7.70;99.90;;;;;;5056355;28;20089;-65
2022/01/31 12:55:33;;;;;;;13.38;2.17;;;7.80;99.90;;;;;;5049140;28;20045;-65
2022/01/31 12:57:59;;;;;;;18.80;2.97;;;7.90;99.90;;;;;;5048550;28;20507;-65
2022/01/31 13:00:40;;;;;;;16.33;2.90;;;7.90;99.90;;;;;;5049047;28;20045;-65
2022/01/31 13:03:10;;;;;;;16.75;2.90;;;7.90;99.90;;;;;;5046513;28;20444;-66
2022/01/31 13:05:38;;;;;;;15.27;2.33;;;7.90;99.90;;;;;;5048021;28;20202;-65
2022/01/31 13:08:23;;;;;;;18.55;2.85;;;7.80;99.90;;;;;;5036620;28;20072;-66
2022/01/31 13:10:51;;;;;;;12.75;2.20;;;7.80;99.90;;;;;;5030908;28;20186;-65
2022/01/31 13:13:34;;;;;;;16.90;2.35;;;7.70;99.90;;;;;;5049581;28;20088;-65
2022/01/31 13:16:10;;;;;;;14.23;2.63;;;7.80;99.90;;;;;;5047701;28;20488;-65
2022/01/31 13:18:37;;;;;;;12.30;1.98;;;7.80;99.90;;;;;;5048083;28;20056;-64
2022/01/31 13:21:05;;;;;;;23.70;2.78;;;7.80;99.90;;;;;;5047761;28;20464;-65